sensor_id;sensor_type;location;lat;lon;timestamp;temperature;humidity
70676;DHT22;59069;52.242;20.900;2022-10-24T00:00:47;11.60;93.11
70676;DHT22;59069;52.242;20.900;2022-10-24T00:03:13;11.63;93.10
70676;DHT22;59069;52.242;20.900;2022-10-24T00:05:43;11.65;93.07
70676;DHT22;59069;52.242;20.900;2022-10-24T00:08:09;11.69;93.05
70676;DHT22;59069;52.242;20.900;2022-10-24T00:10:35;11.67;92.99
70676;DHT22;59069;52.242;20.900;2022-10-24T00:13:01;11.69;92.95
70676;DHT22;59069;52.242;20.900;2022-10-24T00:15:26;11.65;92.95
70676;DHT22;59069;52.242;20.900;2022-10-24T00:17:52;11.66;92.92
70676;DHT22;59069;52.242;20.900;2022-10-24T00:20:17;11.66;92.91
70676;DHT22;59069;52.242;20.900;2022-10-24T00:22:43;11.65;92.91
70676;DHT22;59069;52.242;20.900;2022-10-24T00:25:08;11.67;92.86
70676;DHT22;59069;52.242;20.900;2022-10-24T00:27:34;11.69;92.86
70676;DHT22;59069;52.242;20.900;2022-10-24T00:30:01;11.70;92.83
70676;DHT22;59069;52.242;20.900;2022-10-24T00:32:26;11.70;92.74
70676;DHT22;59069;52.242;20.900;2022-10-24T00:34:52;11.70;92.72
70676;DHT22;59069;52.242;20.900;2022-10-24T00:37:17;11.69;92.60
70676;DHT22;59069;52.242;20.900;2022-10-24T00:39:42;11.69;92.58
70676;DHT22;59069;52.242;20.900;2022-10-24T00:42:09;11.67;92.51
70676;DHT22;59069;52.242;20.900;2022-10-24T00:44:40;11.65;92.41
70676;DHT22;59069;52.242;20.900;2022-10-24T00:49:49;11.62;92.46
70676;DHT22;59069;52.242;20.900;2022-10-24T00:52:18;11.60;92.48
70676;DHT22;59069;52.242;20.900;2022-10-24T00:54:45;11.62;92.45
70676;DHT22;59069;52.242;20.900;2022-10-24T00:57:39;11.63;92.48
70676;DHT22;59069;52.242;20.900;2022-10-24T01:00:12;11.63;92.44
70676;DHT22;59069;52.242;20.900;2022-10-24T01:02:38;11.65;92.43
70676;DHT22;59069;52.242;20.900;2022-10-24T01:05:05;11.63;92.46
70676;DHT22;59069;52.242;20.900;2022-10-24T01:08:08;11.66;92.40
70676;DHT22;59069;52.242;20.900;2022-10-24T01:13:27;11.67;92.23
70676;DHT22;59069;52.242;20.900;2022-10-24T01:21:30;11.67;92.14
70676;DHT22;59069;52.242;20.900;2022-10-24T01:30:04;11.70;91.98
70676;DHT22;59069;52.242;20.900;2022-10-24T01:32:47;11.72;91.96
70676;DHT22;59069;52.242;20.900;2022-10-24T01:40:42;11.69;91.97
70676;DHT22;59069;52.242;20.900;2022-10-24T01:43:11;11.65;91.98
70676;DHT22;59069;52.242;20.900;2022-10-24T01:45:40;11.62;91.97
70676;DHT22;59069;52.242;20.900;2022-10-24T01:48:11;11.60;91.94
70676;DHT22;59069;52.242;20.900;2022-10-24T01:50:38;11.56;91.92
70676;DHT22;59069;52.242;20.900;2022-10-24T01:53:06;11.53;91.90
70676;DHT22;59069;52.242;20.900;2022-10-24T01:55:33;11.53;91.91
70676;DHT22;59069;52.242;20.900;2022-10-24T01:57:58;11.47;91.90
70676;DHT22;59069;52.242;20.900;2022-10-24T02:00:24;11.49;91.83
70676;DHT22;59069;52.242;20.900;2022-10-24T02:05:36;11.40;91.86
70676;DHT22;59069;52.242;20.900;2022-10-24T02:08:12;11.38;91.94
70676;DHT22;59069;52.242;20.900;2022-10-24T02:10:51;11.39;92.01
70676;DHT22;59069;52.242;20.900;2022-10-24T02:13:26;11.38;92.11
70676;DHT22;59069;52.242;20.900;2022-10-24T02:15:56;11.35;92.21
70676;DHT22;59069;52.242;20.900;2022-10-24T02:18:23;11.38;92.21
70676;DHT22;59069;52.242;20.900;2022-10-24T02:20:58;11.38;92.16
70676;DHT22;59069;52.242;20.900;2022-10-24T02:23:37;11.36;92.16
70676;DHT22;59069;52.242;20.900;2022-10-24T02:26:12;11.33;92.18
70676;DHT22;59069;52.242;20.900;2022-10-24T02:28:42;11.36;92.12
70676;DHT22;59069;52.242;20.900;2022-10-24T02:31:16;11.33;92.01
70676;DHT22;59069;52.242;20.900;2022-10-24T02:33:43;11.33;92.01
70676;DHT22;59069;52.242;20.900;2022-10-24T02:36:11;11.29;92.05
70676;DHT22;59069;52.242;20.900;2022-10-24T02:38:40;11.28;92.04
70676;DHT22;59069;52.242;20.900;2022-10-24T02:41:10;11.25;92.02
70676;DHT22;59069;52.242;20.900;2022-10-24T02:43:37;11.23;92.07
70676;DHT22;59069;52.242;20.900;2022-10-24T02:46:05;11.21;92.17
70676;DHT22;59069;52.242;20.900;2022-10-24T02:48:34;11.19;92.12
70676;DHT22;59069;52.242;20.900;2022-10-24T02:51:01;11.14;92.11
70676;DHT22;59069;52.242;20.900;2022-10-24T02:53:27;11.16;92.15
70676;DHT22;59069;52.242;20.900;2022-10-24T02:55:53;11.12;92.15
70676;DHT22;59069;52.242;20.900;2022-10-24T02:58:18;11.12;92.18
70676;DHT22;59069;52.242;20.900;2022-10-24T03:00:44;11.11;92.18
70676;DHT22;59069;52.242;20.900;2022-10-24T03:03:09;11.08;92.16
70676;DHT22;59069;52.242;20.900;2022-10-24T03:05:35;11.09;92.14
70676;DHT22;59069;52.242;20.900;2022-10-24T03:08:00;11.08;92.13
70676;DHT22;59069;52.242;20.900;2022-10-24T03:10:26;11.05;92.06
70676;DHT22;59069;52.242;20.900;2022-10-24T03:12:51;11.04;92.02
70676;DHT22;59069;52.242;20.900;2022-10-24T03:15:16;11.04;91.99
70676;DHT22;59069;52.242;20.900;2022-10-24T03:17:42;11.00;91.98
70676;DHT22;59069;52.242;20.900;2022-10-24T03:20:08;10.97;91.96
70676;DHT22;59069;52.242;20.900;2022-10-24T03:22:33;10.97;91.93
70676;DHT22;59069;52.242;20.900;2022-10-24T03:24:59;10.94;91.93
70676;DHT22;59069;52.242;20.900;2022-10-24T03:43:07;10.81;91.92
70676;DHT22;59069;52.242;20.900;2022-10-24T03:45:32;10.77;91.88
70676;DHT22;59069;52.242;20.900;2022-10-24T03:47:58;10.75;91.93
70676;DHT22;59069;52.242;20.900;2022-10-24T03:50:23;10.72;91.90
70676;DHT22;59069;52.242;20.900;2022-10-24T03:52:49;10.72;91.93
70676;DHT22;59069;52.242;20.900;2022-10-24T03:55:14;10.71;91.92
70676;DHT22;59069;52.242;20.900;2022-10-24T03:57:39;10.70;91.89
70676;DHT22;59069;52.242;20.900;2022-10-24T04:00:05;10.65;91.95
70676;DHT22;59069;52.242;20.900;2022-10-24T04:02:31;10.64;91.94
70676;DHT22;59069;52.242;20.900;2022-10-24T04:04:56;10.64;92.03
70676;DHT22;59069;52.242;20.900;2022-10-24T04:07:22;10.67;92.04
70676;DHT22;59069;52.242;20.900;2022-10-24T04:09:47;10.68;92.06
70676;DHT22;59069;52.242;20.900;2022-10-24T04:12:13;10.70;92.08
70676;DHT22;59069;52.242;20.900;2022-10-24T04:14:38;10.71;91.94
70676;DHT22;59069;52.242;20.900;2022-10-24T04:17:04;10.72;91.96
70676;DHT22;59069;52.242;20.900;2022-10-24T04:19:29;10.72;91.91
70676;DHT22;59069;52.242;20.900;2022-10-24T04:21:55;10.77;91.82
70676;DHT22;59069;52.242;20.900;2022-10-24T04:24:20;10.80;91.78
70676;DHT22;59069;52.242;20.900;2022-10-24T04:26:45;10.78;91.75
70676;DHT22;59069;52.242;20.900;2022-10-24T04:29:11;10.81;91.74
70676;DHT22;59069;52.242;20.900;2022-10-24T04:31:36;10.80;91.76
70676;DHT22;59069;52.242;20.900;2022-10-24T04:34:02;10.82;91.81
70676;DHT22;59069;52.242;20.900;2022-10-24T04:36:29;10.84;91.84
70676;DHT22;59069;52.242;20.900;2022-10-24T04:38:54;10.88;91.83
70676;DHT22;59069;52.242;20.900;2022-10-24T04:41:20;10.88;91.78
70676;DHT22;59069;52.242;20.900;2022-10-24T04:43:45;10.92;91.69
70676;DHT22;59069;52.242;20.900;2022-10-24T04:46:11;10.95;91.69
70676;DHT22;59069;52.242;20.900;2022-10-24T04:48:36;11.01;91.66
70676;DHT22;59069;52.242;20.900;2022-10-24T04:51:02;11.00;91.58
70676;DHT22;59069;52.242;20.900;2022-10-24T04:53:27;11.05;91.52
70676;DHT22;59069;52.242;20.900;2022-10-24T04:55:52;11.08;91.48
70676;DHT22;59069;52.242;20.900;2022-10-24T04:58:18;11.08;91.40
70676;DHT22;59069;52.242;20.900;2022-10-24T05:00:43;11.14;91.37
70676;DHT22;59069;52.242;20.900;2022-10-24T05:03:12;11.14;91.27
70676;DHT22;59069;52.242;20.900;2022-10-24T05:05:38;11.16;91.13
70676;DHT22;59069;52.242;20.900;2022-10-24T05:08:03;11.18;91.12
70676;DHT22;59069;52.242;20.900;2022-10-24T05:10:29;11.18;91.17
70676;DHT22;59069;52.242;20.900;2022-10-24T05:12:54;11.19;90.99
70676;DHT22;59069;52.242;20.900;2022-10-24T05:15:20;11.19;91.02
70676;DHT22;59069;52.242;20.900;2022-10-24T05:17:46;11.23;90.99
70676;DHT22;59069;52.242;20.900;2022-10-24T05:20:11;11.23;90.98
70676;DHT22;59069;52.242;20.900;2022-10-24T05:22:36;11.26;90.87
70676;DHT22;59069;52.242;20.900;2022-10-24T05:25:02;11.29;90.80
70676;DHT22;59069;52.242;20.900;2022-10-24T05:27:28;11.32;90.76
70676;DHT22;59069;52.242;20.900;2022-10-24T05:29:53;11.33;90.64
70676;DHT22;59069;52.242;20.900;2022-10-24T05:32:20;11.35;90.61
70676;DHT22;59069;52.242;20.900;2022-10-24T05:34:46;11.38;90.60
70676;DHT22;59069;52.242;20.900;2022-10-24T05:37:11;11.39;90.56
70676;DHT22;59069;52.242;20.900;2022-10-24T05:39:37;11.43;90.49
70676;DHT22;59069;52.242;20.900;2022-10-24T05:42:02;11.49;90.44
70676;DHT22;59069;52.242;20.900;2022-10-24T05:44:28;11.52;90.31
70676;DHT22;59069;52.242;20.900;2022-10-24T05:46:53;11.53;90.22
70676;DHT22;59069;52.242;20.900;2022-10-24T05:49:19;11.58;90.14
70676;DHT22;59069;52.242;20.900;2022-10-24T05:51:44;11.60;90.04
70676;DHT22;59069;52.242;20.900;2022-10-24T05:54:09;11.62;89.88
70676;DHT22;59069;52.242;20.900;2022-10-24T05:56:35;11.62;89.71
70676;DHT22;59069;52.242;20.900;2022-10-24T05:59:00;11.62;89.57
70676;DHT22;59069;52.242;20.900;2022-10-24T06:01:28;11.63;89.52
70676;DHT22;59069;52.242;20.900;2022-10-24T06:03:53;11.65;89.39
70676;DHT22;59069;52.242;20.900;2022-10-24T06:06:19;11.66;89.25
70676;DHT22;59069;52.242;20.900;2022-10-24T06:08:44;11.63;89.24
70676;DHT22;59069;52.242;20.900;2022-10-24T06:11:10;11.65;89.16
70676;DHT22;59069;52.242;20.900;2022-10-24T06:13:36;11.62;89.03
70676;DHT22;59069;52.242;20.900;2022-10-24T06:16:02;11.59;88.81
70676;DHT22;59069;52.242;20.900;2022-10-24T06:18:29;11.53;88.85
70676;DHT22;59069;52.242;20.900;2022-10-24T06:20:58;11.53;88.91
70676;DHT22;59069;52.242;20.900;2022-10-24T06:23:23;11.52;88.99
70676;DHT22;59069;52.242;20.900;2022-10-24T06:25:49;11.52;88.94
70676;DHT22;59069;52.242;20.900;2022-10-24T06:28:14;11.50;88.87
70676;DHT22;59069;52.242;20.900;2022-10-24T06:30:41;11.50;89.06
70676;DHT22;59069;52.242;20.900;2022-10-24T06:33:06;11.52;88.99
70676;DHT22;59069;52.242;20.900;2022-10-24T06:35:32;11.53;88.97
70676;DHT22;59069;52.242;20.900;2022-10-24T06:37:57;11.53;88.94
70676;DHT22;59069;52.242;20.900;2022-10-24T06:40:23;11.52;88.98
70676;DHT22;59069;52.242;20.900;2022-10-24T06:42:48;11.55;88.92
70676;DHT22;59069;52.242;20.900;2022-10-24T06:45:14;11.56;88.85
70676;DHT22;59069;52.242;20.900;2022-10-24T06:47:39;11.58;88.85
70676;DHT22;59069;52.242;20.900;2022-10-24T06:50:05;11.56;88.79
70676;DHT22;59069;52.242;20.900;2022-10-24T06:52:31;11.60;88.80
70676;DHT22;59069;52.242;20.900;2022-10-24T06:54:57;11.63;88.62
70676;DHT22;59069;52.242;20.900;2022-10-24T06:57:22;11.65;88.71
70676;DHT22;59069;52.242;20.900;2022-10-24T06:59:47;11.62;88.71
70676;DHT22;59069;52.242;20.900;2022-10-24T07:02:14;11.62;88.68
70676;DHT22;59069;52.242;20.900;2022-10-24T07:04:40;11.62;88.60
70676;DHT22;59069;52.242;20.900;2022-10-24T07:07:06;11.59;88.74
70676;DHT22;59069;52.242;20.900;2022-10-24T07:09:31;11.60;88.85
70676;DHT22;59069;52.242;20.900;2022-10-24T07:11:56;11.59;88.81
70676;DHT22;59069;52.242;20.900;2022-10-24T07:14:22;11.60;88.75
70676;DHT22;59069;52.242;20.900;2022-10-24T07:16:50;11.63;88.76
70676;DHT22;59069;52.242;20.900;2022-10-24T07:19:15;11.62;88.69
70676;DHT22;59069;52.242;20.900;2022-10-24T07:21:41;11.62;88.70
70676;DHT22;59069;52.242;20.900;2022-10-24T07:24:07;11.65;88.69
70676;DHT22;59069;52.242;20.900;2022-10-24T07:26:32;11.63;88.55
70676;DHT22;59069;52.242;20.900;2022-10-24T07:28:59;11.65;88.69
70676;DHT22;59069;52.242;20.900;2022-10-24T07:31:28;11.63;88.78
70676;DHT22;59069;52.242;20.900;2022-10-24T07:33:54;11.69;88.80
70676;DHT22;59069;52.242;20.900;2022-10-24T07:36:22;11.70;88.87
70676;DHT22;59069;52.242;20.900;2022-10-24T07:38:49;11.74;88.92
70676;DHT22;59069;52.242;20.900;2022-10-24T07:41:15;11.80;88.87
70676;DHT22;59069;52.242;20.900;2022-10-24T07:43:40;11.82;88.73
70676;DHT22;59069;52.242;20.900;2022-10-24T07:46:08;11.86;88.84
70676;DHT22;59069;52.242;20.900;2022-10-24T07:48:33;11.89;88.78
70676;DHT22;59069;52.242;20.900;2022-10-24T07:51:04;11.89;88.77
70676;DHT22;59069;52.242;20.900;2022-10-24T07:53:29;11.90;88.68
70676;DHT22;59069;52.242;20.900;2022-10-24T07:55:57;11.97;88.79
70676;DHT22;59069;52.242;20.900;2022-10-24T07:58:24;11.94;88.59
70676;DHT22;59069;52.242;20.900;2022-10-24T08:00:49;11.98;88.58
70676;DHT22;59069;52.242;20.900;2022-10-24T08:03:14;12.00;88.51
70676;DHT22;59069;52.242;20.900;2022-10-24T08:05:40;12.04;88.43
70676;DHT22;59069;52.242;20.900;2022-10-24T08:08:06;12.08;88.46
70676;DHT22;59069;52.242;20.900;2022-10-24T08:10:31;12.13;88.51
70676;DHT22;59069;52.242;20.900;2022-10-24T08:12:57;12.20;88.36
70676;DHT22;59069;52.242;20.900;2022-10-24T08:15:22;12.24;88.19
70676;DHT22;59069;52.242;20.900;2022-10-24T08:17:50;12.25;88.13
70676;DHT22;59069;52.242;20.900;2022-10-24T08:20:15;12.30;88.07
70676;DHT22;59069;52.242;20.900;2022-10-24T08:22:41;12.35;87.99
70676;DHT22;59069;52.242;20.900;2022-10-24T08:25:07;12.38;87.75
70676;DHT22;59069;52.242;20.900;2022-10-24T08:27:34;12.42;87.72
70676;DHT22;59069;52.242;20.900;2022-10-24T08:29:59;12.46;87.51
70676;DHT22;59069;52.242;20.900;2022-10-24T08:32:25;12.51;87.25
70676;DHT22;59069;52.242;20.900;2022-10-24T08:34:50;12.54;87.19
70676;DHT22;59069;52.242;20.900;2022-10-24T08:37:15;12.55;87.23
70676;DHT22;59069;52.242;20.900;2022-10-24T08:39:41;12.61;87.19
70676;DHT22;59069;52.242;20.900;2022-10-24T08:42:10;12.68;87.37
70676;DHT22;59069;52.242;20.900;2022-10-24T08:44:42;12.75;87.25
70676;DHT22;59069;52.242;20.900;2022-10-24T08:50:40;12.93;86.95
70676;DHT22;59069;52.242;20.900;2022-10-24T08:52:50;13.03;86.75
70676;DHT22;59069;52.242;20.900;2022-10-24T08:55:23;13.12;86.68
70676;DHT22;59069;52.242;20.900;2022-10-24T08:57:55;13.26;86.59
70676;DHT22;59069;52.242;20.900;2022-10-24T09:00:24;13.39;86.37
70676;DHT22;59069;52.242;20.900;2022-10-24T09:03:03;13.51;86.18
70676;DHT22;59069;52.242;20.900;2022-10-24T09:05:36;13.64;85.88
70676;DHT22;59069;52.242;20.900;2022-10-24T09:08:16;13.74;85.26
70676;DHT22;59069;52.242;20.900;2022-10-24T09:10:53;13.85;85.12
70676;DHT22;59069;52.242;20.900;2022-10-24T09:13:19;14.00;84.96
70676;DHT22;59069;52.242;20.900;2022-10-24T09:15:48;14.06;84.42
70676;DHT22;59069;52.242;20.900;2022-10-24T09:18:24;14.19;84.15
70676;DHT22;59069;52.242;20.900;2022-10-24T09:20:51;14.25;83.82
70676;DHT22;59069;52.242;20.900;2022-10-24T09:23:18;14.36;83.74
70676;DHT22;59069;52.242;20.900;2022-10-24T09:25:48;14.49;83.58
70676;DHT22;59069;52.242;20.900;2022-10-24T09:28:14;14.52;83.34
70676;DHT22;59069;52.242;20.900;2022-10-24T09:30:40;14.59;83.06
70676;DHT22;59069;52.242;20.900;2022-10-24T09:33:26;14.60;82.32
70676;DHT22;59069;52.242;20.900;2022-10-24T09:35:55;14.65;81.93
70676;DHT22;59069;52.242;20.900;2022-10-24T09:40:51;14.66;81.58
70676;DHT22;59069;52.242;20.900;2022-10-24T09:43:18;14.67;81.39
70676;DHT22;59069;52.242;20.900;2022-10-24T09:45:50;14.59;81.39
70676;DHT22;59069;52.242;20.900;2022-10-24T09:48:22;14.60;81.71
70676;DHT22;59069;52.242;20.900;2022-10-24T09:50:50;14.63;81.44
70676;DHT22;59069;52.242;20.900;2022-10-24T09:53:34;14.66;81.44
70676;DHT22;59069;52.242;20.900;2022-10-24T09:56:10;14.73;81.71
70676;DHT22;59069;52.242;20.900;2022-10-24T09:58:35;14.80;81.53
70676;DHT22;59069;52.242;20.900;2022-10-24T10:01:04;14.88;81.73
70676;DHT22;59069;52.242;20.900;2022-10-24T10:03:31;14.98;81.31
70676;DHT22;59069;52.242;20.900;2022-10-24T10:05:59;15.03;81.29
70676;DHT22;59069;52.242;20.900;2022-10-24T10:08:30;15.08;81.08
70676;DHT22;59069;52.242;20.900;2022-10-24T10:11:09;15.12;80.98
70676;DHT22;59069;52.242;20.900;2022-10-24T10:13:47;15.18;80.42
70676;DHT22;59069;52.242;20.900;2022-10-24T10:16:30;15.27;80.30
70676;DHT22;59069;52.242;20.900;2022-10-24T10:19:17;15.30;80.30
70676;DHT22;59069;52.242;20.900;2022-10-24T10:22:05;15.37;80.20
70676;DHT22;59069;52.242;20.900;2022-10-24T10:24:39;15.42;80.10
70676;DHT22;59069;52.242;20.900;2022-10-24T10:27:33;15.55;80.35
70676;DHT22;59069;52.242;20.900;2022-10-24T10:30:19;15.78;81.55
70676;DHT22;59069;52.242;20.900;2022-10-24T10:38:51;15.99;78.77
70676;DHT22;59069;52.242;20.900;2022-10-24T10:49:29;16.19;78.08
70676;DHT22;59069;52.242;20.900;2022-10-24T10:51:56;16.27;78.06
70676;DHT22;59069;52.242;20.900;2022-10-24T10:57:46;16.36;77.76
70676;DHT22;59069;52.242;20.900;2022-10-24T11:02:54;16.41;77.50
70676;DHT22;59069;52.242;20.900;2022-10-24T11:10:52;16.58;77.23
70676;DHT22;59069;52.242;20.900;2022-10-24T11:13:28;16.61;77.34
70676;DHT22;59069;52.242;20.900;2022-10-24T11:15:59;16.67;77.16
70676;DHT22;59069;52.242;20.900;2022-10-24T11:18:33;16.68;77.11
70676;DHT22;59069;52.242;20.900;2022-10-24T11:21:12;16.71;77.16
70676;DHT22;59069;52.242;20.900;2022-10-24T11:26:31;16.78;77.04
70676;DHT22;59069;52.242;20.900;2022-10-24T11:29:36;16.82;77.10
70676;DHT22;59069;52.242;20.900;2022-10-24T11:32:16;16.85;77.09
70676;DHT22;59069;52.242;20.900;2022-10-24T11:34:51;16.92;77.27
70676;DHT22;59069;52.242;20.900;2022-10-24T11:37:24;17.02;77.07
70676;DHT22;59069;52.242;20.900;2022-10-24T11:39:58;17.08;76.99
70676;DHT22;59069;52.242;20.900;2022-10-24T11:45:44;17.23;76.89
70676;DHT22;59069;52.242;20.900;2022-10-24T11:54:02;17.35;76.15
70676;DHT22;59069;52.242;20.900;2022-10-24T11:56:50;17.45;75.87
70676;DHT22;59069;52.242;20.900;2022-10-24T11:59:19;17.52;75.86
70676;DHT22;59069;52.242;20.900;2022-10-24T12:13:12;17.52;74.06
70676;DHT22;59069;52.242;20.900;2022-10-24T12:15:46;17.52;74.17
70676;DHT22;59069;52.242;20.900;2022-10-24T12:18:38;17.47;74.12
70676;DHT22;59069;52.242;20.900;2022-10-24T12:21:09;17.54;74.31
70676;DHT22;59069;52.242;20.900;2022-10-24T12:23:36;17.54;74.32
70676;DHT22;59069;52.242;20.900;2022-10-24T12:26:19;17.59;73.90
70676;DHT22;59069;52.242;20.900;2022-10-24T12:28:57;17.63;73.73
70676;DHT22;59069;52.242;20.900;2022-10-24T12:31:37;17.65;73.40
70676;DHT22;59069;52.242;20.900;2022-10-24T12:39:41;17.76;72.85
70676;DHT22;59069;52.242;20.900;2022-10-24T12:44:42;17.91;72.09
70676;DHT22;59069;52.242;20.900;2022-10-24T12:49:58;18.05;71.38
70676;DHT22;59069;52.242;20.900;2022-10-24T12:57:55;18.10;70.59
70676;DHT22;59069;52.242;20.900;2022-10-24T13:00:28;18.14;70.42
70676;DHT22;59069;52.242;20.900;2022-10-24T13:21:34;18.27;68.91
70676;DHT22;59069;52.242;20.900;2022-10-24T13:24:10;18.25;68.61
70676;DHT22;59069;52.242;20.900;2022-10-24T13:26:46;18.27;68.64
70676;DHT22;59069;52.242;20.900;2022-10-24T13:31:52;18.17;68.84
70676;DHT22;59069;52.242;20.900;2022-10-24T13:36:51;18.08;69.38
70676;DHT22;59069;52.242;20.900;2022-10-24T13:39:23;18.05;69.58
70676;DHT22;59069;52.242;20.900;2022-10-24T13:42:00;18.05;69.80
70676;DHT22;59069;52.242;20.900;2022-10-24T13:47:00;18.11;69.79
70676;DHT22;59069;52.242;20.900;2022-10-24T13:49:32;18.12;69.70
70676;DHT22;59069;52.242;20.900;2022-10-24T13:52:07;18.12;69.81
70676;DHT22;59069;52.242;20.900;2022-10-24T13:54:35;18.14;69.64
70676;DHT22;59069;52.242;20.900;2022-10-24T13:57:01;18.15;69.57
70676;DHT22;59069;52.242;20.900;2022-10-24T13:59:35;18.20;69.64
70676;DHT22;59069;52.242;20.900;2022-10-24T14:02:04;18.22;69.37
70676;DHT22;59069;52.242;20.900;2022-10-24T14:04:31;18.32;69.48
70676;DHT22;59069;52.242;20.900;2022-10-24T14:07:02;18.41;69.41
70676;DHT22;59069;52.242;20.900;2022-10-24T14:09:29;18.49;69.23
70676;DHT22;59069;52.242;20.900;2022-10-24T14:11:55;18.61;69.27
70676;DHT22;59069;52.242;20.900;2022-10-24T14:14:28;18.77;69.32
70676;DHT22;59069;52.242;20.900;2022-10-24T14:19:30;18.85;67.92
70676;DHT22;59069;52.242;20.900;2022-10-24T14:21:58;18.79;67.52
70676;DHT22;59069;52.242;20.900;2022-10-24T14:24:23;18.68;67.43
70676;DHT22;59069;52.242;20.900;2022-10-24T14:26:50;18.56;67.49
70676;DHT22;59069;52.242;20.900;2022-10-24T14:29:35;18.40;67.85
70676;DHT22;59069;52.242;20.900;2022-10-24T14:32:03;18.31;68.08
70676;DHT22;59069;52.242;20.900;2022-10-24T14:34:30;18.22;68.36
70676;DHT22;59069;52.242;20.900;2022-10-24T14:37:06;18.11;68.73
70676;DHT22;59069;52.242;20.900;2022-10-24T14:39:33;18.05;69.06
70676;DHT22;59069;52.242;20.900;2022-10-24T14:41:59;17.96;69.40
70676;DHT22;59069;52.242;20.900;2022-10-24T14:44:26;17.84;69.64
70676;DHT22;59069;52.242;20.900;2022-10-24T14:47:03;17.73;70.13
70676;DHT22;59069;52.242;20.900;2022-10-24T14:49:39;17.63;70.38
70676;DHT22;59069;52.242;20.900;2022-10-24T14:54:36;17.42;71.23
70676;DHT22;59069;52.242;20.900;2022-10-24T14:57:04;17.30;71.55
70676;DHT22;59069;52.242;20.900;2022-10-24T14:59:33;17.19;71.95
70676;DHT22;59069;52.242;20.900;2022-10-24T15:04:39;17.01;72.96
70676;DHT22;59069;52.242;20.900;2022-10-24T15:07:37;16.89;73.40
70676;DHT22;59069;52.242;20.900;2022-10-24T15:12:45;16.70;74.07
70676;DHT22;59069;52.242;20.900;2022-10-24T15:15:33;16.61;74.47
70676;DHT22;59069;52.242;20.900;2022-10-24T15:20:46;16.46;75.06
70676;DHT22;59069;52.242;20.900;2022-10-24T15:23:31;16.37;75.48
70676;DHT22;59069;52.242;20.900;2022-10-24T15:26:09;16.33;75.71
70676;DHT22;59069;52.242;20.900;2022-10-24T15:31:13;16.20;76.28
70676;DHT22;59069;52.242;20.900;2022-10-24T15:33:38;16.13;76.60
70676;DHT22;59069;52.242;20.900;2022-10-24T15:36:04;16.10;76.72
70676;DHT22;59069;52.242;20.900;2022-10-24T15:38:30;16.03;76.90
70676;DHT22;59069;52.242;20.900;2022-10-24T15:40:55;15.99;77.16
70676;DHT22;59069;52.242;20.900;2022-10-24T15:43:22;15.93;77.42
70676;DHT22;59069;52.242;20.900;2022-10-24T15:45:48;15.86;77.65
70676;DHT22;59069;52.242;20.900;2022-10-24T15:48:13;15.85;77.94
70676;DHT22;59069;52.242;20.900;2022-10-24T15:50:44;15.79;78.25
70676;DHT22;59069;52.242;20.900;2022-10-24T15:53:16;15.73;78.41
70676;DHT22;59069;52.242;20.900;2022-10-24T15:55:42;15.72;78.60
70676;DHT22;59069;52.242;20.900;2022-10-24T15:58:12;15.68;78.78
70676;DHT22;59069;52.242;20.900;2022-10-24T16:00:37;15.65;78.85
70676;DHT22;59069;52.242;20.900;2022-10-24T16:03:04;15.61;79.15
70676;DHT22;59069;52.242;20.900;2022-10-24T16:05:37;15.59;79.44
70676;DHT22;59069;52.242;20.900;2022-10-24T16:08:03;15.56;79.48
70676;DHT22;59069;52.242;20.900;2022-10-24T16:10:28;15.56;79.68
70676;DHT22;59069;52.242;20.900;2022-10-24T16:12:54;15.56;79.77
70676;DHT22;59069;52.242;20.900;2022-10-24T16:15:27;15.52;79.91
70676;DHT22;59069;52.242;20.900;2022-10-24T16:17:52;15.52;80.03
70676;DHT22;59069;52.242;20.900;2022-10-24T16:20:18;15.49;80.16
70676;DHT22;59069;52.242;20.900;2022-10-24T16:22:45;15.45;80.33
70676;DHT22;59069;52.242;20.900;2022-10-24T16:25:22;15.42;80.48
70676;DHT22;59069;52.242;20.900;2022-10-24T16:27:49;15.38;80.61
70676;DHT22;59069;52.242;20.900;2022-10-24T16:30:17;15.37;80.73
70676;DHT22;59069;52.242;20.900;2022-10-24T16:32:43;15.37;80.93
70676;DHT22;59069;52.242;20.900;2022-10-24T16:35:14;15.35;81.10
70676;DHT22;59069;52.242;20.900;2022-10-24T16:37:40;15.34;81.23
70676;DHT22;59069;52.242;20.900;2022-10-24T16:40:06;15.31;81.33
70676;DHT22;59069;52.242;20.900;2022-10-24T16:42:31;15.30;81.47
70676;DHT22;59069;52.242;20.900;2022-10-24T16:44:57;15.30;81.60
70676;DHT22;59069;52.242;20.900;2022-10-24T16:47:22;15.27;81.65
70676;DHT22;59069;52.242;20.900;2022-10-24T16:49:53;15.24;81.69
70676;DHT22;59069;52.242;20.900;2022-10-24T16:52:19;15.21;81.82
70676;DHT22;59069;52.242;20.900;2022-10-24T16:54:44;15.16;81.90
70676;DHT22;59069;52.242;20.900;2022-10-24T16:57:10;15.12;82.04
70676;DHT22;59069;52.242;20.900;2022-10-24T16:59:35;15.11;82.28
70676;DHT22;59069;52.242;20.900;2022-10-24T17:02:01;15.10;82.43
70676;DHT22;59069;52.242;20.900;2022-10-24T17:04:27;15.08;82.42
70676;DHT22;59069;52.242;20.900;2022-10-24T17:06:53;15.06;82.56
70676;DHT22;59069;52.242;20.900;2022-10-24T17:09:18;15.03;82.63
70676;DHT22;59069;52.242;20.900;2022-10-24T17:11:44;15.01;82.78
70676;DHT22;59069;52.242;20.900;2022-10-24T17:14:09;14.97;83.04
70676;DHT22;59069;52.242;20.900;2022-10-24T17:16:38;14.96;83.17
70676;DHT22;59069;52.242;20.900;2022-10-24T17:19:04;14.96;83.31
70676;DHT22;59069;52.242;20.900;2022-10-24T17:21:30;14.91;83.47
70676;DHT22;59069;52.242;20.900;2022-10-24T17:23:55;14.88;83.56
70676;DHT22;59069;52.242;20.900;2022-10-24T17:26:21;14.88;83.71
70676;DHT22;59069;52.242;20.900;2022-10-24T17:28:47;14.88;83.89
70676;DHT22;59069;52.242;20.900;2022-10-24T17:31:13;14.87;83.95
70676;DHT22;59069;52.242;20.900;2022-10-24T17:33:39;14.84;84.14
70676;DHT22;59069;52.242;20.900;2022-10-24T17:36:22;14.81;84.20
70676;DHT22;59069;52.242;20.900;2022-10-24T17:39:13;14.80;84.23
70676;DHT22;59069;52.242;20.900;2022-10-24T17:41:43;14.79;84.46
70676;DHT22;59069;52.242;20.900;2022-10-24T17:44:14;14.79;84.63
70676;DHT22;59069;52.242;20.900;2022-10-24T17:46:40;14.76;84.64
70676;DHT22;59069;52.242;20.900;2022-10-24T17:49:06;14.76;84.70
70676;DHT22;59069;52.242;20.900;2022-10-24T17:51:34;14.76;84.87
70676;DHT22;59069;52.242;20.900;2022-10-24T17:54:02;14.72;85.03
70676;DHT22;59069;52.242;20.900;2022-10-24T17:56:30;14.76;85.26
70676;DHT22;59069;52.242;20.900;2022-10-24T17:58:55;14.75;85.32